Nearby METAR Reports

 

KSJC - San Jose, California, USA
Distance from station: NE 9mi, 14km
Updated: Sat, 19-Sep-2020 11:53am PDT
Mostly cloudy
Mostly cloudy
 Wind from NW
Wind: NW 9 mph , 15 km/h
Temperature: 72°F , 22°C
Dew Point: 55°F , 13°C
Humidity: 57%
Barometer: 30.00 inHg , 1015.9 hPa
Clouds: Mostly cloudy
Visibility: 10 miles , 16 km
Cloud details: Mostly cloudy 6500 ft
2020/09/19 18:53 KSJC 191853Z 32008KT 10SM BKN065 22/13 A3000 RMK AO2 SLP158 FU BKN065 T02220128
KNUQ - Moffett Nas/Mtn, California, USA
Distance from station: N 9mi, 14km
Updated: Sat, 19-Sep-2020 6:55am PDT
NOT Current
Few Clouds
Few Clouds
 Wind from calm
Wind: Calm
Temperature: 59°F , 15°C
Dew Point: 55°F , 13°C
Humidity: 88%
Barometer: 30.01 inHg , 1016.3 hPa
Clouds: Few Clouds
Visibility: 10 miles , 16 km
Cloud details: Few Clouds 2100 ft
2020/09/19 13:55 KNUQ 191355Z AUTO 00000KT 10SM FEW021 15/13 A3001 RMK AO2
KPAO - Palo Alto, California, USA
Distance from station: NNW 14mi, 23km
Updated: Sat, 19-Sep-2020 11:47am PDT
Clear
Clear
 Wind from varies
Wind: varies 6 mph , 9 km/h
Temperature: 68°F , 20°C
Dew Point: 59°F , 15°C
Humidity: 73%
Barometer: 30.01 inHg , 1016.3 hPa
Clouds: Clear
Visibility: 10 miles , 16 km
2020/09/19 18:47 KPAO 191847Z VRB05KT 10SM SKC 20/15 A3001
 
KRHV - San Jose/Reid, California, USA
Distance from station: ENE 12mi, 19km
Updated: Sat, 19-Sep-2020 11:47am PDT
Clear
Clear
 Wind from W
Wind: W 7 mph , 11 km/h
Temperature: 72°F , 22°C
Dew Point: 57°F , 14°C
Humidity: 61%
Barometer: 30.01 inHg , 1016.3 hPa
Clouds: Clear
Visibility: 10 miles , 16 km
2020/09/19 18:47 KRHV 191847Z 27006KT 10SM SKC 22/14 A3001
KOAK - Oakland, California, USA
Distance from station: NNW 31mi, 50km
Updated: Sat, 19-Sep-2020 11:53am PDT
Few Clouds
Few Clouds
 Wind from SW
Wind: SW 7 mph , 11 km/h
Temperature: 70°F , 21°C
Dew Point: 57°F , 14°C
Humidity: 64%
Barometer: 30.02 inHg , 1016.6 hPa
Clouds: Few Clouds
Visibility: 10 miles , 16 km
Cloud details: Few Clouds 800 ft
Few Clouds 1800 ft
2020/09/19 18:53 KOAK 191853Z 23006KT 10SM FEW008 FEW018 21/14 A3002 RMK AO2 SLP164 T02110144
KSQL - San Carlos Airpo, California, USA
Distance from station: NW 21mi, 34km
Updated: Sat, 19-Sep-2020 11:49am PDT
Clear
Clear
 Wind from N
Wind: N 7 mph , 11 km/h
Temperature: 68°F , 20°C
Dew Point: 61°F , 16°C
Humidity: 78%
Barometer: 30.02 inHg , 1016.6 hPa
Clouds: Clear
Visibility: 10 miles , 16 km
2020/09/19 18:49 KSQL 191849Z 36006KT 10SM SKC 20/16 A3002
 
KSFO - San Francisco, California, USA
Distance from station: NW 30mi, 49km
Updated: Sat, 19-Sep-2020 11:56am PDT
Few Clouds
Few Clouds
 Wind from NNW
Wind: NNW 6 mph , 9 km/h
Temperature: 70°F , 21°C
Dew Point: 57°F , 14°C
Humidity: 64%
Barometer: 30.00 inHg , 1015.9 hPa
Clouds: Few Clouds
Visibility: 10 miles , 16 km
Cloud details: Few Clouds 800 ft
2020/09/19 18:56 KSFO 191856Z 34005KT 10SM FEW008 21/14 A3000 RMK AO2 SLP159 T02110144
KE16 - San Martin, California, USA
Distance from station: ESE 27mi, 43km
Updated: Sat, 19-Sep-2020 12:10pm PDT
Clear
Clear
 Wind from WNW
Wind: WNW 8 mph , 13 km/h
Temperature: 73°F , 23°C
Dew Point: 55°F , 13°C
Humidity: 53%
Barometer: 30.00 inHg , 1015.9 hPa
Clouds: Clear
Visibility: 10 miles , 16 km
2020/09/19 19:10 KE16 191910Z AUTO 30007KT 10SM CLR 23/13 A3000 RMK AO2 PWINO PNO
KWVI - Watsonville, California, USA
Distance from station: SSE 27mi, 44km
Updated: Sat, 19-Sep-2020 11:53am PDT
Clear
Clear
 Wind from SW
Wind: SW 6 mph , 9 km/h
Temperature: 73°F , 23°C
Dew Point: 59°F , 15°C
Humidity: 61%
Barometer: 29.99 inHg , 1015.6 hPa
Clouds: Clear
Visibility: 10 miles , 16 km
2020/09/19 18:53 KWVI 191853Z AUTO 23005KT 10SM CLR 23/15 A2999 RMK AO2 SLP155 T02330150
 
KHAF - Half Moon Bay, California, USA
Distance from station: WNW 31mi, 50km
Updated: Sat, 19-Sep-2020 12:15pm PDT
Clear
Clear
 Wind from NW
Wind: NW 17 mph , 28 km/h
Temperature: 64°F , 18°C
Dew Point: 59°F , 15°C
Humidity: 83%
Barometer: 30.00 inHg , 1015.9 hPa
Clouds: Clear
Visibility: 9 miles , 14 km
2020/09/19 19:15 KHAF 191915Z AUTO 32015KT 9SM CLR 18/15 A3000 RMK AO2
KHWD - Hayward, California, USA
Distance from station: N 28mi, 44km
Updated: Sat, 19-Sep-2020 11:54am PDT
Clear
Clear
 Wind from varies
Wind: varies 7 mph , 11 km/h
Temperature: 72°F , 22°C
Dew Point: 57°F , 14°C
Humidity: 61%
Barometer: 30.01 inHg , 1016.3 hPa
Clouds: Clear
Visibility: 10 miles , 16 km
2020/09/19 18:54 KHWD 191854Z VRB06KT 10SM CLR 22/14 A3001 RMK AO2 SLP169 T02170139
KLVK - Livermore, California, USA
Distance from station: NNE 31mi, 51km
Updated: Sat, 19-Sep-2020 11:53am PDT
Clear
Clear
 Wind from SSW
Wind: SSW 7 mph , 11 km/h
Temperature: 73°F , 23°C
Dew Point: 55°F , 13°C
Humidity: 53%
Barometer: 30.00 inHg , 1015.9 hPa
Clouds: Clear
Visibility: 10 miles , 16 km
2020/09/19 18:53 KLVK 191853Z 20006KT 10SM CLR 23/13 A3000 RMK AO2 SLP153 T02280128